sensor_id;sensor_type;location;lat;lon;timestamp;temperature;humidity
16814;DHT22;8524;57.650;11.926;2023-02-01T00:02:16;5.20;99.90
16814;DHT22;8524;57.650;11.926;2023-02-01T00:04:43;5.20;99.90
16814;DHT22;8524;57.650;11.926;2023-02-01T00:07:10;5.10;99.90
16814;DHT22;8524;57.650;11.926;2023-02-01T00:09:37;5.10;99.90
16814;DHT22;8524;57.650;11.926;2023-02-01T00:12:06;5.10;99.90
16814;DHT22;8524;57.650;11.926;2023-02-01T00:14:33;5.10;99.90
16814;DHT22;8524;57.650;11.926;2023-02-01T00:17:04;5.20;99.90
16814;DHT22;8524;57.650;11.926;2023-02-01T00:19:32;5.10;99.90
16814;DHT22;8524;57.650;11.926;2023-02-01T00:21:59;5.20;99.90
16814;DHT22;8524;57.650;11.926;2023-02-01T00:24:26;5.20;99.90
16814;DHT22;8524;57.650;11.926;2023-02-01T00:26:53;5.20;99.90
16814;DHT22;8524;57.650;11.926;2023-02-01T00:29:22;5.10;99.90
16814;DHT22;8524;57.650;11.926;2023-02-01T00:31:50;5.10;99.90
16814;DHT22;8524;57.650;11.926;2023-02-01T00:34:18;5.10;99.90
16814;DHT22;8524;57.650;11.926;2023-02-01T00:36:46;5.20;99.90
16814;DHT22;8524;57.650;11.926;2023-02-01T00:39:13;5.20;99.90
16814;DHT22;8524;57.650;11.926;2023-02-01T00:41:41;5.20;99.90
16814;DHT22;8524;57.650;11.926;2023-02-01T00:44:08;5.20;99.90
16814;DHT22;8524;57.650;11.926;2023-02-01T00:46:36;5.20;99.90
16814;DHT22;8524;57.650;11.926;2023-02-01T00:49:03;5.20;99.90
16814;DHT22;8524;57.650;11.926;2023-02-01T00:51:32;5.10;99.90
16814;DHT22;8524;57.650;11.926;2023-02-01T00:53:59;5.10;99.90
16814;DHT22;8524;57.650;11.926;2023-02-01T00:56:27;5.10;99.90
16814;DHT22;8524;57.650;11.926;2023-02-01T00:58:54;5.10;99.90
16814;DHT22;8524;57.650;11.926;2023-02-01T01:01:22;5.10;99.90
16814;DHT22;8524;57.650;11.926;2023-02-01T01:03:52;5.10;99.90
16814;DHT22;8524;57.650;11.926;2023-02-01T01:06:24;5.10;99.90
16814;DHT22;8524;57.650;11.926;2023-02-01T01:08:52;5.10;99.90
16814;DHT22;8524;57.650;11.926;2023-02-01T01:11:20;5.10;99.90
16814;DHT22;8524;57.650;11.926;2023-02-01T01:13:49;5.20;99.90
16814;DHT22;8524;57.650;11.926;2023-02-01T01:16:17;5.20;99.90
16814;DHT22;8524;57.650;11.926;2023-02-01T01:18:44;5.20;99.90
16814;DHT22;8524;57.650;11.926;2023-02-01T01:21:13;5.30;99.90
16814;DHT22;8524;57.650;11.926;2023-02-01T01:23:41;5.30;99.90
16814;DHT22;8524;57.650;11.926;2023-02-01T01:26:16;5.30;99.90
16814;DHT22;8524;57.650;11.926;2023-02-01T01:28:44;5.30;99.90
16814;DHT22;8524;57.650;11.926;2023-02-01T01:31:12;5.40;99.90
16814;DHT22;8524;57.650;11.926;2023-02-01T01:33:40;5.40;99.90
16814;DHT22;8524;57.650;11.926;2023-02-01T01:36:10;5.50;99.90
16814;DHT22;8524;57.650;11.926;2023-02-01T01:38:39;5.50;99.90
16814;DHT22;8524;57.650;11.926;2023-02-01T01:41:06;5.60;99.90
16814;DHT22;8524;57.650;11.926;2023-02-01T01:43:49;5.60;99.90
16814;DHT22;8524;57.650;11.926;2023-02-01T01:46:18;5.50;99.90
16814;DHT22;8524;57.650;11.926;2023-02-01T01:48:48;5.50;99.90
16814;DHT22;8524;57.650;11.926;2023-02-01T01:51:19;5.60;99.90
16814;DHT22;8524;57.650;11.926;2023-02-01T01:53:53;5.60;99.90
16814;DHT22;8524;57.650;11.926;2023-02-01T01:56:22;5.70;99.90
16814;DHT22;8524;57.650;11.926;2023-02-01T01:58:49;5.70;99.90
16814;DHT22;8524;57.650;11.926;2023-02-01T02:01:16;5.70;99.90
16814;DHT22;8524;57.650;11.926;2023-02-01T02:03:44;5.80;99.90
16814;DHT22;8524;57.650;11.926;2023-02-01T02:06:19;5.80;99.90
16814;DHT22;8524;57.650;11.926;2023-02-01T02:08:49;5.80;99.90
16814;DHT22;8524;57.650;11.926;2023-02-01T02:11:17;5.80;99.90
16814;DHT22;8524;57.650;11.926;2023-02-01T02:13:47;5.90;99.90
16814;DHT22;8524;57.650;11.926;2023-02-01T02:16:25;5.90;99.90
16814;DHT22;8524;57.650;11.926;2023-02-01T02:19:03;5.90;99.90
16814;DHT22;8524;57.650;11.926;2023-02-01T02:21:51;5.90;99.90
16814;DHT22;8524;57.650;11.926;2023-02-01T02:24:39;5.80;99.90
16814;DHT22;8524;57.650;11.926;2023-02-01T02:27:19;5.90;99.90
16814;DHT22;8524;57.650;11.926;2023-02-01T02:35:43;5.90;99.90
16814;DHT22;8524;57.650;11.926;2023-02-01T02:38:17;5.80;99.90
16814;DHT22;8524;57.650;11.926;2023-02-01T02:40:51;5.80;99.90
16814;DHT22;8524;57.650;11.926;2023-02-01T02:43:30;5.80;99.90
16814;DHT22;8524;57.650;11.926;2023-02-01T02:46:22;5.80;99.90
16814;DHT22;8524;57.650;11.926;2023-02-01T02:49:12;5.90;99.90
16814;DHT22;8524;57.650;11.926;2023-02-01T02:51:45;5.90;99.90
16814;DHT22;8524;57.650;11.926;2023-02-01T02:54:34;5.80;99.90
16814;DHT22;8524;57.650;11.926;2023-02-01T02:57:20;5.80;99.90
16814;DHT22;8524;57.650;11.926;2023-02-01T03:00:08;5.80;99.90
16814;DHT22;8524;57.650;11.926;2023-02-01T03:02:53;5.80;99.90
16814;DHT22;8524;57.650;11.926;2023-02-01T03:05:41;5.80;99.90
16814;DHT22;8524;57.650;11.926;2023-02-01T03:08:12;5.80;99.90
16814;DHT22;8524;57.650;11.926;2023-02-01T03:10:47;5.80;99.90
16814;DHT22;8524;57.650;11.926;2023-02-01T03:13:22;5.90;99.90
16814;DHT22;8524;57.650;11.926;2023-02-01T03:15:56;5.90;99.90
16814;DHT22;8524;57.650;11.926;2023-02-01T03:18:28;5.80;99.90
16814;DHT22;8524;57.650;11.926;2023-02-01T03:20:58;5.90;99.90
16814;DHT22;8524;57.650;11.926;2023-02-01T03:23:31;5.80;99.90
16814;DHT22;8524;57.650;11.926;2023-02-01T03:26:00;5.90;99.90
16814;DHT22;8524;57.650;11.926;2023-02-01T03:28:31;5.90;99.90
16814;DHT22;8524;57.650;11.926;2023-02-01T03:31:00;5.80;99.90
16814;DHT22;8524;57.650;11.926;2023-02-01T03:33:28;5.90;99.90
16814;DHT22;8524;57.650;11.926;2023-02-01T03:36:03;5.90;99.90
16814;DHT22;8524;57.650;11.926;2023-02-01T03:38:38;6.00;99.90
16814;DHT22;8524;57.650;11.926;2023-02-01T03:41:10;6.00;99.90
16814;DHT22;8524;57.650;11.926;2023-02-01T03:43:45;6.00;99.90
16814;DHT22;8524;57.650;11.926;2023-02-01T03:46:19;6.10;99.90
16814;DHT22;8524;57.650;11.926;2023-02-01T03:48:50;6.00;99.90
16814;DHT22;8524;57.650;11.926;2023-02-01T03:51:19;6.10;99.90
16814;DHT22;8524;57.650;11.926;2023-02-01T03:53:49;6.10;99.90
16814;DHT22;8524;57.650;11.926;2023-02-01T03:56:18;6.10;99.90
16814;DHT22;8524;57.650;11.926;2023-02-01T03:58:48;6.10;99.90
16814;DHT22;8524;57.650;11.926;2023-02-01T04:01:25;6.10;99.90
16814;DHT22;8524;57.650;11.926;2023-02-01T04:03:53;6.10;99.90
16814;DHT22;8524;57.650;11.926;2023-02-01T04:06:20;6.10;99.90
16814;DHT22;8524;57.650;11.926;2023-02-01T04:08:48;6.10;99.90
16814;DHT22;8524;57.650;11.926;2023-02-01T04:11:16;6.10;99.90
16814;DHT22;8524;57.650;11.926;2023-02-01T04:13:43;6.10;99.90
16814;DHT22;8524;57.650;11.926;2023-02-01T04:16:10;6.10;99.90
16814;DHT22;8524;57.650;11.926;2023-02-01T04:18:37;6.10;99.90
16814;DHT22;8524;57.650;11.926;2023-02-01T04:21:04;6.00;99.90
16814;DHT22;8524;57.650;11.926;2023-02-01T04:23:31;6.00;99.90
16814;DHT22;8524;57.650;11.926;2023-02-01T04:26:01;6.00;99.90
16814;DHT22;8524;57.650;11.926;2023-02-01T04:28:28;6.00;99.90
16814;DHT22;8524;57.650;11.926;2023-02-01T04:30:55;6.00;99.90
16814;DHT22;8524;57.650;11.926;2023-02-01T04:33:22;6.00;99.90
16814;DHT22;8524;57.650;11.926;2023-02-01T04:35:49;6.00;99.90
16814;DHT22;8524;57.650;11.926;2023-02-01T04:38:16;6.00;99.90
16814;DHT22;8524;57.650;11.926;2023-02-01T04:40:46;6.10;99.90
16814;DHT22;8524;57.650;11.926;2023-02-01T04:43:14;6.10;99.90
16814;DHT22;8524;57.650;11.926;2023-02-01T04:45:41;6.10;99.90
16814;DHT22;8524;57.650;11.926;2023-02-01T04:48:08;6.00;99.90
16814;DHT22;8524;57.650;11.926;2023-02-01T04:50:35;6.00;99.90
16814;DHT22;8524;57.650;11.926;2023-02-01T04:53:03;6.00;99.90
16814;DHT22;8524;57.650;11.926;2023-02-01T04:55:30;5.90;99.90
16814;DHT22;8524;57.650;11.926;2023-02-01T04:57:57;5.90;99.90
16814;DHT22;8524;57.650;11.926;2023-02-01T05:00:26;5.90;99.90
16814;DHT22;8524;57.650;11.926;2023-02-01T05:02:53;5.90;99.90
16814;DHT22;8524;57.650;11.926;2023-02-01T05:05:20;5.90;99.90
16814;DHT22;8524;57.650;11.926;2023-02-01T05:07:47;5.90;99.90
16814;DHT22;8524;57.650;11.926;2023-02-01T05:10:14;5.90;99.90
16814;DHT22;8524;57.650;11.926;2023-02-01T05:12:42;5.90;99.90
16814;DHT22;8524;57.650;11.926;2023-02-01T05:15:28;5.80;99.90
16814;DHT22;8524;57.650;11.926;2023-02-01T05:17:55;5.80;99.90
16814;DHT22;8524;57.650;11.926;2023-02-01T05:20:23;5.80;99.90
16814;DHT22;8524;57.650;11.926;2023-02-01T05:22:50;5.80;99.90
16814;DHT22;8524;57.650;11.926;2023-02-01T05:25:17;5.80;99.90
16814;DHT22;8524;57.650;11.926;2023-02-01T05:27:44;5.80;99.90
16814;DHT22;8524;57.650;11.926;2023-02-01T05:30:12;5.80;99.90
16814;DHT22;8524;57.650;11.926;2023-02-01T05:32:40;5.80;99.90
16814;DHT22;8524;57.650;11.926;2023-02-01T05:35:08;5.70;99.90
16814;DHT22;8524;57.650;11.926;2023-02-01T05:37:35;5.80;99.90
16814;DHT22;8524;57.650;11.926;2023-02-01T05:40:03;5.80;99.90
16814;DHT22;8524;57.650;11.926;2023-02-01T05:42:30;5.80;99.90
16814;DHT22;8524;57.650;11.926;2023-02-01T05:44:57;5.80;99.90
16814;DHT22;8524;57.650;11.926;2023-02-01T05:47:24;5.80;99.90
16814;DHT22;8524;57.650;11.926;2023-02-01T05:49:52;5.80;99.90
16814;DHT22;8524;57.650;11.926;2023-02-01T05:52:19;5.80;99.90
16814;DHT22;8524;57.650;11.926;2023-02-01T05:54:46;5.70;99.90
16814;DHT22;8524;57.650;11.926;2023-02-01T05:57:14;5.60;99.90
16814;DHT22;8524;57.650;11.926;2023-02-01T05:59:41;5.60;99.90
16814;DHT22;8524;57.650;11.926;2023-02-01T06:02:10;5.60;99.90
16814;DHT22;8524;57.650;11.926;2023-02-01T06:04:37;5.60;99.90
16814;DHT22;8524;57.650;11.926;2023-02-01T06:07:07;5.60;99.90
16814;DHT22;8524;57.650;11.926;2023-02-01T06:09:34;5.50;99.90
16814;DHT22;8524;57.650;11.926;2023-02-01T06:12:02;5.60;99.90
16814;DHT22;8524;57.650;11.926;2023-02-01T06:14:30;5.70;99.90
16814;DHT22;8524;57.650;11.926;2023-02-01T06:16:57;5.70;99.90
16814;DHT22;8524;57.650;11.926;2023-02-01T06:19:24;5.80;99.90
16814;DHT22;8524;57.650;11.926;2023-02-01T06:21:51;5.80;99.90
16814;DHT22;8524;57.650;11.926;2023-02-01T06:24:19;5.80;99.90
16814;DHT22;8524;57.650;11.926;2023-02-01T06:26:46;5.90;99.90
16814;DHT22;8524;57.650;11.926;2023-02-01T06:29:14;5.90;99.90
16814;DHT22;8524;57.650;11.926;2023-02-01T06:31:42;5.90;99.90
16814;DHT22;8524;57.650;11.926;2023-02-01T06:34:09;5.90;99.90
16814;DHT22;8524;57.650;11.926;2023-02-01T06:36:36;5.80;99.90
16814;DHT22;8524;57.650;11.926;2023-02-01T06:39:04;5.80;99.90
16814;DHT22;8524;57.650;11.926;2023-02-01T06:41:32;5.80;99.90
16814;DHT22;8524;57.650;11.926;2023-02-01T06:44:00;5.80;99.90
16814;DHT22;8524;57.650;11.926;2023-02-01T06:46:27;5.70;99.90
16814;DHT22;8524;57.650;11.926;2023-02-01T06:48:54;5.70;99.90
16814;DHT22;8524;57.650;11.926;2023-02-01T06:51:23;5.60;99.90
16814;DHT22;8524;57.650;11.926;2023-02-01T06:53:51;5.60;99.90
16814;DHT22;8524;57.650;11.926;2023-02-01T06:56:18;5.60;99.90
16814;DHT22;8524;57.650;11.926;2023-02-01T06:58:47;5.60;99.90
16814;DHT22;8524;57.650;11.926;2023-02-01T07:01:14;5.50;99.90
16814;DHT22;8524;57.650;11.926;2023-02-01T07:03:41;5.50;99.90
16814;DHT22;8524;57.650;11.926;2023-02-01T07:06:09;5.50;99.90
16814;DHT22;8524;57.650;11.926;2023-02-01T07:08:37;5.50;99.90
16814;DHT22;8524;57.650;11.926;2023-02-01T07:11:05;5.40;99.90
16814;DHT22;8524;57.650;11.926;2023-02-01T07:13:33;5.50;99.90
16814;DHT22;8524;57.650;11.926;2023-02-01T07:16:03;5.50;99.90
16814;DHT22;8524;57.650;11.926;2023-02-01T07:18:31;5.50;99.90
16814;DHT22;8524;57.650;11.926;2023-02-01T07:20:59;5.50;99.90
16814;DHT22;8524;57.650;11.926;2023-02-01T07:23:27;5.50;99.90
16814;DHT22;8524;57.650;11.926;2023-02-01T07:25:55;5.50;99.90
16814;DHT22;8524;57.650;11.926;2023-02-01T07:28:22;5.40;99.90
16814;DHT22;8524;57.650;11.926;2023-02-01T07:30:49;5.30;99.90
16814;DHT22;8524;57.650;11.926;2023-02-01T07:33:20;5.30;99.90
16814;DHT22;8524;57.650;11.926;2023-02-01T07:35:47;5.30;99.90
16814;DHT22;8524;57.650;11.926;2023-02-01T07:38:15;5.30;99.90
16814;DHT22;8524;57.650;11.926;2023-02-01T07:40:42;5.30;99.90
16814;DHT22;8524;57.650;11.926;2023-02-01T07:43:10;5.30;99.90
16814;DHT22;8524;57.650;11.926;2023-02-01T07:45:37;5.40;99.90
16814;DHT22;8524;57.650;11.926;2023-02-01T07:48:04;5.40;99.90
16814;DHT22;8524;57.650;11.926;2023-02-01T07:50:33;5.40;99.90
16814;DHT22;8524;57.650;11.926;2023-02-01T07:53:01;5.40;99.90
16814;DHT22;8524;57.650;11.926;2023-02-01T07:55:28;5.40;99.90
16814;DHT22;8524;57.650;11.926;2023-02-01T07:57:58;5.40;99.90
16814;DHT22;8524;57.650;11.926;2023-02-01T08:00:25;5.40;99.90
16814;DHT22;8524;57.650;11.926;2023-02-01T08:03:10;5.40;99.90
16814;DHT22;8524;57.650;11.926;2023-02-01T08:05:38;5.50;99.90
16814;DHT22;8524;57.650;11.926;2023-02-01T08:08:06;5.50;99.90
16814;DHT22;8524;57.650;11.926;2023-02-01T08:10:33;5.50;99.90
16814;DHT22;8524;57.650;11.926;2023-02-01T08:13:02;5.60;99.90
16814;DHT22;8524;57.650;11.926;2023-02-01T08:15:29;5.60;99.90
16814;DHT22;8524;57.650;11.926;2023-02-01T08:17:57;5.60;99.90
16814;DHT22;8524;57.650;11.926;2023-02-01T08:20:24;5.50;99.90
16814;DHT22;8524;57.650;11.926;2023-02-01T08:22:54;5.60;99.90
16814;DHT22;8524;57.650;11.926;2023-02-01T08:25:21;5.70;99.90
16814;DHT22;8524;57.650;11.926;2023-02-01T08:27:48;5.80;99.90
16814;DHT22;8524;57.650;11.926;2023-02-01T08:30:16;5.80;99.90
16814;DHT22;8524;57.650;11.926;2023-02-01T08:32:43;5.90;99.90
16814;DHT22;8524;57.650;11.926;2023-02-01T08:35:10;5.90;99.90
16814;DHT22;8524;57.650;11.926;2023-02-01T08:37:37;6.00;99.90
16814;DHT22;8524;57.650;11.926;2023-02-01T08:40:07;6.00;99.90
16814;DHT22;8524;57.650;11.926;2023-02-01T08:42:34;6.10;99.90
16814;DHT22;8524;57.650;11.926;2023-02-01T08:45:21;6.20;99.90
16814;DHT22;8524;57.650;11.926;2023-02-01T08:47:49;6.10;99.90
16814;DHT22;8524;57.650;11.926;2023-02-01T08:50:17;6.10;99.90
16814;DHT22;8524;57.650;11.926;2023-02-01T08:52:44;6.20;99.90
16814;DHT22;8524;57.650;11.926;2023-02-01T08:55:13;6.10;99.90
16814;DHT22;8524;57.650;11.926;2023-02-01T08:57:41;6.10;99.90
16814;DHT22;8524;57.650;11.926;2023-02-01T09:00:11;6.00;99.90
16814;DHT22;8524;57.650;11.926;2023-02-01T09:02:40;6.00;99.90
16814;DHT22;8524;57.650;11.926;2023-02-01T09:05:08;6.10;99.90
16814;DHT22;8524;57.650;11.926;2023-02-01T09:07:36;6.10;99.90
16814;DHT22;8524;57.650;11.926;2023-02-01T09:10:04;6.20;99.90
16814;DHT22;8524;57.650;11.926;2023-02-01T09:12:33;6.20;99.90
16814;DHT22;8524;57.650;11.926;2023-02-01T09:15:01;6.20;99.90
16814;DHT22;8524;57.650;11.926;2023-02-01T09:17:29;6.20;99.90
16814;DHT22;8524;57.650;11.926;2023-02-01T09:19:56;6.20;99.90
16814;DHT22;8524;57.650;11.926;2023-02-01T09:22:23;6.30;99.90
16814;DHT22;8524;57.650;11.926;2023-02-01T09:24:50;6.20;99.90
16814;DHT22;8524;57.650;11.926;2023-02-01T09:27:18;6.30;99.90
16814;DHT22;8524;57.650;11.926;2023-02-01T09:29:46;6.40;99.90
16814;DHT22;8524;57.650;11.926;2023-02-01T09:32:18;6.40;99.90
16814;DHT22;8524;57.650;11.926;2023-02-01T09:34:45;6.40;99.90
16814;DHT22;8524;57.650;11.926;2023-02-01T09:37:12;6.30;99.90
16814;DHT22;8524;57.650;11.926;2023-02-01T09:39:40;6.40;99.90
16814;DHT22;8524;57.650;11.926;2023-02-01T09:42:18;6.40;99.90
16814;DHT22;8524;57.650;11.926;2023-02-01T09:45:10;6.50;99.90
16814;DHT22;8524;57.650;11.926;2023-02-01T09:47:47;6.60;99.90
16814;DHT22;8524;57.650;11.926;2023-02-01T09:50:17;6.60;99.90
16814;DHT22;8524;57.650;11.926;2023-02-01T09:52:53;6.60;99.90
16814;DHT22;8524;57.650;11.926;2023-02-01T09:55:29;6.70;99.90
16814;DHT22;8524;57.650;11.926;2023-02-01T09:58:00;6.80;99.90
16814;DHT22;8524;57.650;11.926;2023-02-01T10:00:31;6.80;99.90
16814;DHT22;8524;57.650;11.926;2023-02-01T10:03:00;6.80;99.90
16814;DHT22;8524;57.650;11.926;2023-02-01T10:05:47;6.80;99.90
16814;DHT22;8524;57.650;11.926;2023-02-01T10:08:21;6.80;99.90
16814;DHT22;8524;57.650;11.926;2023-02-01T10:10:53;6.80;99.90
16814;DHT22;8524;57.650;11.926;2023-02-01T10:13:40;6.80;99.90
16814;DHT22;8524;57.650;11.926;2023-02-01T10:16:20;6.80;99.90
16814;DHT22;8524;57.650;11.926;2023-02-01T10:19:04;6.90;99.90
16814;DHT22;8524;57.650;11.926;2023-02-01T10:21:43;6.90;99.90
16814;DHT22;8524;57.650;11.926;2023-02-01T10:24:24;6.80;99.90
16814;DHT22;8524;57.650;11.926;2023-02-01T10:26:57;6.90;99.90
16814;DHT22;8524;57.650;11.926;2023-02-01T10:29:30;6.90;99.90
16814;DHT22;8524;57.650;11.926;2023-02-01T10:32:01;6.90;99.90
16814;DHT22;8524;57.650;11.926;2023-02-01T10:34:31;7.00;99.90
16814;DHT22;8524;57.650;11.926;2023-02-01T10:37:01;7.00;99.90
16814;DHT22;8524;57.650;11.926;2023-02-01T10:39:28;7.10;99.90
16814;DHT22;8524;57.650;11.926;2023-02-01T10:41:56;7.00;99.90
16814;DHT22;8524;57.650;11.926;2023-02-01T10:44:26;7.10;99.90
16814;DHT22;8524;57.650;11.926;2023-02-01T10:46:53;7.20;99.90
16814;DHT22;8524;57.650;11.926;2023-02-01T10:49:26;7.30;99.90
16814;DHT22;8524;57.650;11.926;2023-02-01T10:51:58;7.30;99.90
16814;DHT22;8524;57.650;11.926;2023-02-01T10:54:33;7.30;99.90
16814;DHT22;8524;57.650;11.926;2023-02-01T10:57:01;7.30;99.90
16814;DHT22;8524;57.650;11.926;2023-02-01T10:59:30;7.30;99.90
16814;DHT22;8524;57.650;11.926;2023-02-01T11:02:15;7.30;99.90
16814;DHT22;8524;57.650;11.926;2023-02-01T11:04:43;7.40;99.90
16814;DHT22;8524;57.650;11.926;2023-02-01T11:07:17;7.40;99.90
16814;DHT22;8524;57.650;11.926;2023-02-01T11:09:50;7.30;99.90
16814;DHT22;8524;57.650;11.926;2023-02-01T11:12:27;7.40;99.90
16814;DHT22;8524;57.650;11.926;2023-02-01T11:15:03;7.40;99.90
16814;DHT22;8524;57.650;11.926;2023-02-01T11:17:34;7.40;99.90
16814;DHT22;8524;57.650;11.926;2023-02-01T11:20:09;7.40;99.90
16814;DHT22;8524;57.650;11.926;2023-02-01T11:22:45;7.40;99.90
16814;DHT22;8524;57.650;11.926;2023-02-01T11:25:15;7.50;99.90
16814;DHT22;8524;57.650;11.926;2023-02-01T11:27:43;7.50;99.90
16814;DHT22;8524;57.650;11.926;2023-02-01T11:30:15;7.50;99.90
16814;DHT22;8524;57.650;11.926;2023-02-01T11:32:45;7.50;99.90
16814;DHT22;8524;57.650;11.926;2023-02-01T11:35:17;7.50;99.90
16814;DHT22;8524;57.650;11.926;2023-02-01T11:37:50;7.40;99.90
16814;DHT22;8524;57.650;11.926;2023-02-01T11:40:27;7.50;99.90
16814;DHT22;8524;57.650;11.926;2023-02-01T11:42:57;7.50;99.90
16814;DHT22;8524;57.650;11.926;2023-02-01T11:45:26;7.50;99.90
16814;DHT22;8524;57.650;11.926;2023-02-01T11:47:54;7.60;99.90
16814;DHT22;8524;57.650;11.926;2023-02-01T11:50:33;7.60;99.90
16814;DHT22;8524;57.650;11.926;2023-02-01T11:53:21;7.70;99.90
16814;DHT22;8524;57.650;11.926;2023-02-01T11:56:05;7.50;99.90
16814;DHT22;8524;57.650;11.926;2023-02-01T11:58:49;7.60;99.90
16814;DHT22;8524;57.650;11.926;2023-02-01T12:01:37;7.70;99.90
16814;DHT22;8524;57.650;11.926;2023-02-01T12:07:17;7.70;99.90
16814;DHT22;8524;57.650;11.926;2023-02-01T12:09:57;7.60;99.90
16814;DHT22;8524;57.650;11.926;2023-02-01T12:12:34;7.70;99.90
16814;DHT22;8524;57.650;11.926;2023-02-01T12:15:19;7.60;99.90
16814;DHT22;8524;57.650;11.926;2023-02-01T12:18:00;7.60;99.90
16814;DHT22;8524;57.650;11.926;2023-02-01T12:20:41;7.60;99.90
16814;DHT22;8524;57.650;11.926;2023-02-01T12:23:25;7.70;99.90
16814;DHT22;8524;57.650;11.926;2023-02-01T12:26:05;7.90;99.90
16814;DHT22;8524;57.650;11.926;2023-02-01T12:29:00;7.90;99.90
16814;DHT22;8524;57.650;11.926;2023-02-01T12:31:46;7.80;99.90
16814;DHT22;8524;57.650;11.926;2023-02-01T12:37:21;7.80;99.90
16814;DHT22;8524;57.650;11.926;2023-02-01T12:40:00;7.80;99.90
16814;DHT22;8524;57.650;11.926;2023-02-01T12:42:32;7.90;99.90
16814;DHT22;8524;57.650;11.926;2023-02-01T12:45:06;8.00;99.90
16814;DHT22;8524;57.650;11.926;2023-02-01T12:47:41;8.10;99.90
16814;DHT22;8524;57.650;11.926;2023-02-01T12:50:16;8.20;99.90
16814;DHT22;8524;57.650;11.926;2023-02-01T12:52:48;8.20;99.90
16814;DHT22;8524;57.650;11.926;2023-02-01T12:55:22;8.20;99.90
16814;DHT22;8524;57.650;11.926;2023-02-01T12:57:52;8.30;99.90
16814;DHT22;8524;57.650;11.926;2023-02-01T13:00:25;8.40;99.90
16814;DHT22;8524;57.650;11.926;2023-02-01T13:02:59;8.20;99.90
16814;DHT22;8524;57.650;11.926;2023-02-01T13:05:29;8.10;99.90
16814;DHT22;8524;57.650;11.926;2023-02-01T13:08:01;8.10;99.90
16814;DHT22;8524;57.650;11.926;2023-02-01T13:10:34;8.00;99.90
16814;DHT22;8524;57.650;11.926;2023-02-01T13:13:09;8.10;99.90
16814;DHT22;8524;57.650;11.926;2023-02-01T13:15:40;8.00;99.90
16814;DHT22;8524;57.650;11.926;2023-02-01T13:18:14;8.00;99.90
16814;DHT22;8524;57.650;11.926;2023-02-01T13:20:49;8.00;99.90
16814;DHT22;8524;57.650;11.926;2023-02-01T13:23:24;7.90;99.90
16814;DHT22;8524;57.650;11.926;2023-02-01T13:25:55;7.80;99.90
16814;DHT22;8524;57.650;11.926;2023-02-01T13:28:26;7.70;99.90
16814;DHT22;8524;57.650;11.926;2023-02-01T13:31:17;7.70;99.90
16814;DHT22;8524;57.650;11.926;2023-02-01T13:36:59;7.50;99.90
16814;DHT22;8524;57.650;11.926;2023-02-01T13:39:43;7.40;99.90
16814;DHT22;8524;57.650;11.926;2023-02-01T13:42:17;7.40;99.90
16814;DHT22;8524;57.650;11.926;2023-02-01T13:44:46;7.30;99.90
16814;DHT22;8524;57.650;11.926;2023-02-01T13:47:24;7.30;99.90
16814;DHT22;8524;57.650;11.926;2023-02-01T13:49:52;7.20;99.90
16814;DHT22;8524;57.650;11.926;2023-02-01T13:52:26;7.20;99.90
16814;DHT22;8524;57.650;11.926;2023-02-01T13:55:24;7.20;99.90
16814;DHT22;8524;57.650;11.926;2023-02-01T14:00:46;7.20;99.90
16814;DHT22;8524;57.650;11.926;2023-02-01T14:03:19;7.10;99.90
16814;DHT22;8524;57.650;11.926;2023-02-01T14:06:32;7.10;99.90
16814;DHT22;8524;57.650;11.926;2023-02-01T14:09:15;7.10;99.90
16814;DHT22;8524;57.650;11.926;2023-02-01T14:11:46;7.00;99.90
16814;DHT22;8524;57.650;11.926;2023-02-01T14:17:36;7.10;99.90
16814;DHT22;8524;57.650;11.926;2023-02-01T14:23:22;7.10;99.90
16814;DHT22;8524;57.650;11.926;2023-02-01T14:26:24;7.10;99.90
16814;DHT22;8524;57.650;11.926;2023-02-01T14:29:01;7.00;99.90
16814;DHT22;8524;57.650;11.926;2023-02-01T14:31:41;7.00;99.90
16814;DHT22;8524;57.650;11.926;2023-02-01T14:34:30;6.90;99.90
16814;DHT22;8524;57.650;11.926;2023-02-01T14:36:59;6.90;99.90
16814;DHT22;8524;57.650;11.926;2023-02-01T14:39:31;6.90;99.90
16814;DHT22;8524;57.650;11.926;2023-02-01T14:42:01;6.90;99.90
16814;DHT22;8524;57.650;11.926;2023-02-01T14:44:31;6.90;99.90
16814;DHT22;8524;57.650;11.926;2023-02-01T14:49:55;6.80;99.90
16814;DHT22;8524;57.650;11.926;2023-02-01T14:52:30;6.80;99.90
16814;DHT22;8524;57.650;11.926;2023-02-01T14:55:04;6.80;99.90
16814;DHT22;8524;57.650;11.926;2023-02-01T14:57:34;6.70;99.90
16814;DHT22;8524;57.650;11.926;2023-02-01T15:00:14;6.60;99.90
16814;DHT22;8524;57.650;11.926;2023-02-01T15:02:43;6.50;99.90
16814;DHT22;8524;57.650;11.926;2023-02-01T15:05:27;6.40;99.90
16814;DHT22;8524;57.650;11.926;2023-02-01T15:07:58;6.40;99.90
16814;DHT22;8524;57.650;11.926;2023-02-01T15:10:28;6.30;99.90
16814;DHT22;8524;57.650;11.926;2023-02-01T15:12:57;6.20;99.90
16814;DHT22;8524;57.650;11.926;2023-02-01T15:15:24;6.20;99.90
16814;DHT22;8524;57.650;11.926;2023-02-01T15:17:54;6.10;99.90
16814;DHT22;8524;57.650;11.926;2023-02-01T15:20:25;5.90;99.90
16814;DHT22;8524;57.650;11.926;2023-02-01T15:22:55;5.90;99.90
16814;DHT22;8524;57.650;11.926;2023-02-01T15:25:25;5.80;99.90
16814;DHT22;8524;57.650;11.926;2023-02-01T15:27:53;5.70;99.90
16814;DHT22;8524;57.650;11.926;2023-02-01T15:30:22;5.60;99.90
16814;DHT22;8524;57.650;11.926;2023-02-01T15:32:52;5.50;99.90
16814;DHT22;8524;57.650;11.926;2023-02-01T15:35:41;5.40;99.90
16814;DHT22;8524;57.650;11.926;2023-02-01T15:38:30;5.30;99.90
16814;DHT22;8524;57.650;11.926;2023-02-01T15:40:59;5.30;99.90
16814;DHT22;8524;57.650;11.926;2023-02-01T15:43:29;5.30;99.90
16814;DHT22;8524;57.650;11.926;2023-02-01T15:45:58;5.30;99.90
16814;DHT22;8524;57.650;11.926;2023-02-01T15:48:27;5.30;99.90
16814;DHT22;8524;57.650;11.926;2023-02-01T15:50:58;5.30;99.90
16814;DHT22;8524;57.650;11.926;2023-02-01T15:53:26;5.30;99.90
16814;DHT22;8524;57.650;11.926;2023-02-01T15:55:59;5.30;99.90
16814;DHT22;8524;57.650;11.926;2023-02-01T15:58:27;5.30;99.90
16814;DHT22;8524;57.650;11.926;2023-02-01T16:00:59;5.30;99.90
16814;DHT22;8524;57.650;11.926;2023-02-01T16:03:38;5.30;99.90
16814;DHT22;8524;57.650;11.926;2023-02-01T16:06:10;5.30;99.90
16814;DHT22;8524;57.650;11.926;2023-02-01T16:08:38;5.20;99.90
16814;DHT22;8524;57.650;11.926;2023-02-01T16:11:22;5.20;99.90
16814;DHT22;8524;57.650;11.926;2023-02-01T16:13:49;5.10;99.90
16814;DHT22;8524;57.650;11.926;2023-02-01T16:16:16;5.20;99.90
16814;DHT22;8524;57.650;11.926;2023-02-01T16:18:43;5.20;99.90
16814;DHT22;8524;57.650;11.926;2023-02-01T16:21:12;5.20;99.90
16814;DHT22;8524;57.650;11.926;2023-02-01T16:23:39;5.20;99.90
16814;DHT22;8524;57.650;11.926;2023-02-01T16:26:06;5.10;99.90
16814;DHT22;8524;57.650;11.926;2023-02-01T16:28:33;5.10;99.90
16814;DHT22;8524;57.650;11.926;2023-02-01T16:31:01;5.10;99.90
16814;DHT22;8524;57.650;11.926;2023-02-01T16:33:28;5.10;99.90
16814;DHT22;8524;57.650;11.926;2023-02-01T16:35:57;5.00;99.90
16814;DHT22;8524;57.650;11.926;2023-02-01T16:38:29;5.00;99.90
16814;DHT22;8524;57.650;11.926;2023-02-01T16:40:56;5.00;99.90